Freeport, West Virginia
Current Conditions -  °F | °C
As of 5:28 PM on Friday 31 Oct 2014 (Local Time) from KPKB Reporting Station
Light Rain Light Rain  
Wind Chill: 45°   Ceiling: 2600
Heat Index: 45°   Visibility: 7mi
Dew Point: 41°   Wind: 0mph
Humidity: 86%   Direction: NA
Pressure: 29.88"   Gusts: NA
Location:  39.185°N, 81.3645°W
Report Text: KPKB 312128Z 00000KT 7SM -RA BKN026 OVC031 07/05 A2988 RMK AO2 P0001 T00720050
Loading
Personal Weather Stations






























Interactive Weather Map
Tropical Storm Tracking
New forecast layout! Learn more

10-Day Weather Forecast

Advertisements
Track Severe Weather on mobile